createdAt,value
2018-07-10T00:00:52.097Z,20.50
2018-07-10T00:04:43.383Z,20.50
2018-07-10T00:08:28.337Z,20.60
2018-07-10T00:11:33.266Z,20.60
2018-07-10T00:14:04.045Z,20.60
2018-07-10T00:16:35.517Z,20.60
2018-07-10T00:19:06.185Z,20.60
2018-07-10T00:21:36.674Z,20.50
2018-07-10T00:24:07.474Z,20.60
2018-07-10T00:26:38.287Z,20.60
2018-07-10T00:29:09.126Z,20.50
2018-07-10T00:31:39.818Z,20.50
2018-07-10T00:34:10.401Z,20.50
2018-07-10T00:36:41.644Z,20.40
2018-07-10T00:39:12.316Z,20.40
2018-07-10T00:41:43.064Z,20.30
2018-07-10T00:44:13.683Z,20.40
2018-07-10T00:46:44.368Z,20.30
2018-07-10T00:49:15.641Z,20.40
2018-07-10T00:51:46.302Z,20.40
2018-07-10T00:54:17.127Z,20.20
2018-07-10T00:56:47.818Z,20.30
2018-07-10T00:59:19.434Z,20.20
2018-07-10T01:01:49.951Z,20.20
2018-07-10T01:04:20.399Z,20.10
2018-07-10T01:06:51.186Z,20.10
2018-07-10T01:09:21.809Z,20.00
2018-07-10T01:11:52.444Z,19.90
2018-07-10T01:14:23.165Z,19.90
2018-07-10T01:16:53.807Z,19.90
2018-07-10T01:19:24.856Z,19.90
2018-07-10T01:21:55.569Z,19.80
2018-07-10T01:26:56.324Z,19.90
2018-07-10T01:29:32.127Z,19.90
2018-07-10T01:32:02.801Z,19.90
2018-07-10T01:34:33.556Z,19.80
2018-07-10T01:37:04.470Z,19.80
2018-07-10T01:39:35.140Z,19.80
2018-07-10T01:42:05.840Z,19.80
2018-07-10T01:44:36.461Z,19.80
2018-07-10T01:47:07.242Z,19.90
2018-07-10T01:49:37.973Z,19.90
2018-07-10T01:52:08.521Z,20.00
2018-07-10T01:54:39.289Z,20.10
2018-07-10T01:57:09.897Z,20.00
2018-07-10T01:59:40.626Z,19.90
2018-07-10T02:02:11.989Z,19.90
2018-07-10T02:04:42.564Z,19.90
2018-07-10T02:07:16.409Z,19.70
2018-07-10T02:09:47.099Z,19.70
2018-07-10T02:12:18.421Z,19.80
2018-07-10T02:14:49.153Z,19.70
2018-07-10T02:17:19.759Z,19.80
2018-07-10T02:19:50.749Z,19.70
2018-07-10T02:22:21.469Z,19.80
2018-07-10T02:27:22.511Z,19.70
2018-07-10T02:29:53.198Z,19.70
2018-07-10T02:32:23.914Z,19.70
2018-07-10T02:34:54.568Z,19.60
2018-07-10T02:37:25.277Z,19.60
2018-07-10T02:39:56.012Z,19.60
2018-07-10T02:42:26.661Z,19.60
2018-07-10T02:44:57.226Z,19.60
2018-07-10T02:47:30.661Z,19.60
2018-07-10T02:50:01.189Z,19.60
2018-07-10T02:52:37.589Z,19.60
2018-07-10T02:55:09.266Z,19.60
2018-07-10T02:57:39.938Z,19.50
2018-07-10T03:00:10.809Z,19.50
2018-07-10T03:02:41.331Z,19.40
2018-07-10T03:05:12.068Z,19.40
2018-07-10T03:07:42.688Z,19.40
2018-07-10T03:10:13.336Z,19.40
2018-07-10T03:12:44.421Z,19.30
2018-07-10T03:15:15.815Z,19.30
2018-07-10T03:17:46.427Z,19.20
2018-07-10T03:20:17.112Z,19.20
2018-07-10T03:22:47.778Z,19.10
2018-07-10T03:25:18.541Z,18.90
2018-07-10T03:27:49.285Z,18.90
2018-07-10T03:30:19.861Z,18.80
2018-07-10T03:32:50.356Z,18.70
2018-07-10T03:35:20.818Z,18.70
2018-07-10T03:37:51.449Z,18.70
2018-07-10T03:40:22.187Z,18.70
2018-07-10T03:42:52.699Z,18.50
2018-07-10T03:45:23.700Z,18.40
2018-07-10T03:50:25.415Z,18.30
2018-07-10T03:52:56.344Z,18.40
2018-07-10T03:55:27.028Z,18.20
2018-07-10T03:57:59.318Z,18.20
2018-07-10T04:00:31.197Z,18.20
2018-07-10T04:03:02.613Z,18.20
2018-07-10T04:10:36.720Z,18.00
2018-07-10T04:13:12.707Z,18.00
2018-07-10T04:15:46.613Z,18.00
2018-07-10T04:21:24.347Z,18.20
2018-07-10T04:24:34.065Z,18.30
2018-07-10T04:27:18.513Z,18.40
2018-07-10T04:30:57.870Z,18.50
2018-07-10T04:33:28.542Z,18.50
2018-07-10T04:35:59.357Z,18.50
2018-07-10T04:38:30.114Z,18.50
2018-07-10T04:41:14.204Z,18.30
2018-07-10T04:43:54.547Z,18.20
2018-07-10T04:46:31.875Z,18.20
2018-07-10T04:50:13.811Z,18.20
2018-07-10T04:52:53.959Z,18.20
2018-07-10T04:55:24.804Z,18.10
2018-07-10T04:58:05.576Z,17.90
2018-07-10T05:00:58.112Z,17.80
2018-07-10T05:03:29.894Z,17.60
2018-07-10T05:06:05.984Z,17.40
2018-07-10T05:08:37.561Z,17.30
2018-07-10T05:11:08.243Z,17.30
2018-07-10T05:13:38.863Z,17.20
2018-07-10T05:16:09.609Z,17.20
2018-07-10T05:18:40.247Z,17.10
2018-07-10T05:21:15.246Z,17.10
2018-07-10T05:23:46.945Z,16.80
2018-07-10T05:26:18.128Z,16.90
2018-07-10T05:28:53.528Z,16.80
2018-07-10T05:33:54.347Z,16.40
2018-07-10T05:36:25.248Z,16.40
2018-07-10T05:39:09.775Z,16.60
2018-07-10T05:41:46.562Z,16.60
2018-07-10T05:44:23.826Z,16.60
2018-07-10T05:46:59.861Z,16.70
2018-07-10T05:49:32.822Z,16.80
2018-07-10T05:52:03.493Z,16.80
2018-07-10T05:54:35.035Z,16.70
2018-07-10T05:57:06.267Z,16.70
2018-07-10T06:02:07.154Z,16.80
2018-07-10T06:04:39.858Z,16.80
2018-07-10T06:07:10.513Z,16.80
2018-07-10T06:09:41.271Z,16.50
2018-07-10T06:12:11.911Z,16.40
2018-07-10T06:14:43.033Z,16.40
2018-07-10T06:17:13.705Z,16.50
2018-07-10T06:19:44.326Z,16.60
2018-07-10T06:22:15.418Z,17.00
2018-07-10T06:24:46.340Z,17.30
2018-07-10T06:27:22.379Z,17.80
2018-07-10T06:30:07.503Z,18.10
2018-07-10T06:33:53.956Z,18.30
2018-07-10T06:36:30.684Z,18.10
2018-07-10T06:39:09.262Z,17.80
2018-07-10T06:42:15.357Z,17.70
2018-07-10T06:44:49.294Z,17.40
2018-07-10T06:47:29.535Z,17.30
2018-07-10T06:50:00.872Z,17.40
2018-07-10T06:52:31.670Z,17.70
2018-07-10T06:55:07.794Z,18.10
2018-07-10T06:57:53.479Z,18.60
2018-07-10T07:02:54.391Z,19.10
2018-07-10T07:05:25.050Z,18.70
2018-07-10T07:10:26.805Z,18.50
2018-07-10T07:12:57.565Z,18.40
2018-07-10T07:17:58.343Z,18.60
2018-07-10T07:22:59.252Z,19.30
2018-07-10T07:25:29.791Z,19.90
2018-07-10T07:28:00.387Z,22.40
2018-07-10T07:30:31.306Z,25.30
2018-07-10T07:33:02.063Z,26.70
2018-07-10T07:35:32.760Z,26.20
2018-07-10T07:40:33.457Z,26.30
2018-07-10T07:43:04.364Z,26.50
2018-07-10T07:45:34.983Z,25.70
2018-07-10T07:48:05.718Z,25.70
2018-07-10T07:50:36.856Z,25.00
2018-07-10T07:55:37.621Z,23.10
2018-07-10T07:58:08.536Z,23.00
2018-07-10T08:03:09.281Z,26.80
2018-07-10T08:05:40.029Z,28.60
2018-07-10T08:08:10.599Z,30.80
2018-07-10T08:10:41.139Z,32.70
2018-07-10T08:13:11.841Z,31.10
2018-07-10T08:15:42.512Z,28.90
2018-07-10T08:18:13.339Z,27.60
2018-07-10T08:20:46.962Z,25.70
2018-07-10T08:23:18.026Z,25.20
2018-07-10T08:25:49.065Z,24.60
2018-07-10T08:30:50.117Z,26.60
2018-07-10T08:35:51.900Z,26.30
2018-07-10T08:38:43.261Z,25.30
2018-07-10T08:41:25.439Z,24.10
2018-07-10T08:43:56.376Z,22.70
2018-07-10T08:49:00.035Z,20.80
2018-07-10T08:51:31.520Z,20.60
2018-07-10T08:54:02.879Z,20.20
2018-07-10T08:56:34.056Z,20.30
2018-07-10T08:59:04.996Z,20.00
2018-07-10T09:01:35.694Z,19.90
2018-07-10T09:04:07.608Z,20.00
2018-07-10T09:06:38.377Z,20.00
2018-07-10T09:09:09.432Z,19.70
2018-07-10T09:11:42.100Z,19.50
2018-07-10T09:14:14.529Z,19.80
2018-07-10T09:16:45.858Z,20.20
2018-07-10T09:19:20.141Z,21.20
2018-07-10T09:22:12.502Z,21.90
2018-07-10T09:24:51.401Z,21.60
2018-07-10T09:27:23.791Z,21.80
2018-07-10T09:29:54.553Z,22.00
2018-07-10T09:32:31.088Z,22.20
2018-07-10T09:37:37.096Z,21.30
2018-07-10T09:40:18.243Z,20.90
2018-07-10T09:43:07.809Z,20.60
2018-07-10T09:45:39.201Z,20.40
2018-07-10T09:50:41.077Z,21.20
2018-07-10T09:55:41.900Z,23.80
2018-07-10T09:58:12.665Z,24.20
2018-07-10T10:00:48.483Z,24.10
2018-07-10T10:03:20.191Z,23.60
2018-07-10T10:05:51.941Z,23.70
2018-07-10T10:08:23.252Z,23.80
2018-07-10T10:10:54.144Z,24.60
2018-07-10T10:13:24.834Z,24.70
2018-07-10T10:15:55.742Z,23.50
2018-07-10T10:18:27.293Z,22.90
2018-07-10T10:20:58.058Z,22.60
2018-07-10T10:23:28.842Z,22.10
2018-07-10T10:25:59.562Z,22.00
2018-07-10T10:28:30.260Z,21.50
2018-07-10T10:31:01.096Z,21.90
2018-07-10T10:33:31.649Z,23.20
2018-07-10T10:41:04.776Z,26.40
2018-07-10T10:43:35.784Z,26.40
2018-07-10T10:46:06.652Z,26.60
2018-07-10T10:48:37.268Z,26.30
2018-07-10T10:53:38.847Z,24.70
2018-07-10T10:56:09.477Z,24.80
2018-07-10T10:58:40.853Z,26.10
2018-07-10T11:01:11.424Z,27.80
2018-07-10T11:03:42.234Z,28.60
2018-07-10T11:06:13.086Z,27.40
2018-07-10T11:08:44.342Z,26.70
2018-07-10T11:11:15.006Z,26.50
2018-07-10T11:13:46.102Z,26.30
2018-07-10T11:16:16.903Z,26.50
2018-07-10T11:18:57.069Z,26.30
2018-07-10T11:21:43.582Z,25.70
2018-07-10T11:24:17.388Z,24.50
2018-07-10T11:26:48.055Z,24.20
2018-07-10T11:29:18.693Z,24.00
2018-07-10T11:31:49.344Z,23.10
2018-07-10T11:36:50.129Z,23.40
2018-07-10T11:39:20.858Z,23.60
2018-07-10T11:41:52.989Z,23.70
2018-07-10T11:46:53.806Z,23.80
2018-07-10T11:49:24.848Z,24.00
2018-07-10T11:51:55.427Z,23.70
2018-07-10T11:54:26.241Z,23.20
2018-07-10T11:56:56.804Z,23.20
2018-07-10T11:59:27.457Z,22.80
2018-07-10T12:01:58.046Z,22.80
2018-07-10T12:04:28.797Z,22.60
2018-07-10T12:06:59.338Z,23.10
2018-07-10T12:09:30.381Z,23.30
2018-07-10T12:12:02.977Z,23.30
2018-07-10T12:14:33.627Z,23.50
2018-07-10T12:17:04.384Z,24.00
2018-07-10T12:22:05.103Z,23.60
2018-07-10T12:24:35.895Z,23.90
2018-07-10T12:27:06.724Z,23.80
2018-07-10T12:29:37.503Z,24.00
2018-07-10T12:32:08.077Z,23.90
2018-07-10T12:34:38.704Z,24.20
2018-07-10T12:37:09.590Z,24.30
2018-07-10T12:39:40.216Z,24.20
2018-07-10T12:42:10.838Z,24.10
2018-07-10T12:44:42.080Z,24.00
2018-07-10T12:47:12.788Z,24.00
2018-07-10T12:49:43.461Z,23.50
2018-07-10T12:52:14.199Z,23.20
2018-07-10T12:54:44.950Z,22.90
2018-07-10T12:57:15.791Z,22.80
2018-07-10T12:59:46.600Z,22.80
2018-07-10T13:02:17.277Z,22.80
2018-07-10T13:04:48.282Z,23.00
2018-07-10T13:07:18.977Z,23.30
2018-07-10T13:09:49.613Z,23.50
2018-07-10T13:14:50.421Z,24.00
2018-07-10T13:17:21.540Z,24.20
2018-07-10T13:19:52.984Z,24.20
2018-07-10T13:22:23.609Z,24.30
2018-07-10T13:24:54.364Z,24.00
2018-07-10T13:27:24.982Z,23.90
2018-07-10T13:29:55.670Z,23.90
2018-07-10T13:32:26.580Z,24.00
2018-07-10T13:34:57.281Z,24.30
2018-07-10T13:37:29.170Z,24.20
2018-07-10T13:40:04.895Z,24.10
2018-07-10T13:43:08.898Z,24.00
2018-07-10T13:45:39.390Z,23.60
2018-07-10T13:48:10.033Z,23.40
2018-07-10T13:50:40.721Z,23.10
2018-07-10T13:53:11.282Z,22.80
2018-07-10T13:55:41.857Z,22.60
2018-07-10T13:58:16.485Z,22.70
2018-07-10T14:01:09.937Z,22.70
2018-07-10T14:03:40.540Z,22.60
2018-07-10T14:06:11.259Z,22.60
2018-07-10T14:08:41.889Z,22.40
2018-07-10T14:11:12.985Z,22.40
2018-07-10T14:13:44.071Z,22.40
2018-07-10T14:16:14.688Z,22.50
2018-07-10T14:18:45.433Z,22.10
2018-07-10T14:21:16.183Z,22.10
2018-07-10T14:26:17.140Z,21.90
2018-07-10T14:28:48.400Z,22.00
2018-07-10T14:33:49.266Z,22.30
2018-07-10T14:36:19.922Z,22.10
2018-07-10T14:38:50.850Z,21.90
2018-07-10T14:41:22.997Z,21.90
2018-07-10T14:43:54.052Z,21.90
2018-07-10T14:46:25.666Z,22.00
2018-07-10T14:49:00.526Z,22.00
2018-07-10T14:51:44.589Z,21.90
2018-07-10T14:54:15.481Z,21.80
2018-07-10T14:56:46.669Z,21.70
2018-07-10T14:59:17.607Z,21.90
2018-07-10T15:01:48.653Z,22.30
2018-07-10T15:04:19.436Z,22.70
2018-07-10T15:06:50.115Z,22.90
2018-07-10T15:11:51.326Z,23.00
2018-07-10T15:14:21.866Z,23.00
2018-07-10T15:16:57.564Z,22.60
2018-07-10T15:19:27.072Z,22.10
2018-07-10T15:21:57.464Z,22.20
2018-07-10T15:24:28.322Z,22.20
2018-07-10T15:26:59.085Z,22.10
2018-07-10T15:29:31.162Z,21.90
2018-07-10T15:32:01.891Z,21.80
2018-07-10T15:34:32.696Z,21.80
2018-07-10T15:37:03.785Z,22.00
2018-07-10T15:39:34.585Z,22.00
2018-07-10T15:42:05.674Z,22.20
2018-07-10T15:49:36.999Z,22.20
2018-07-10T15:52:07.812Z,22.40
2018-07-10T15:54:39.474Z,22.70
2018-07-10T15:57:10.319Z,23.10
2018-07-10T15:59:40.971Z,23.30
2018-07-10T16:02:11.849Z,22.60
2018-07-10T16:04:42.539Z,22.30
2018-07-10T16:07:13.113Z,22.30
2018-07-10T16:09:43.861Z,22.30
2018-07-10T16:12:14.639Z,22.20
2018-07-10T16:14:45.223Z,22.10
2018-07-10T16:17:23.900Z,22.10
2018-07-10T16:20:11.726Z,22.10
2018-07-10T16:22:43.994Z,21.80
2018-07-10T16:25:31.344Z,21.70
2018-07-10T16:28:12.767Z,21.60
2018-07-10T16:30:43.859Z,21.40
2018-07-10T16:33:20.815Z,21.30
2018-07-10T16:35:51.720Z,21.30
2018-07-10T16:38:22.489Z,21.30
2018-07-10T16:40:53.355Z,21.20
2018-07-10T16:43:29.134Z,20.80
2018-07-10T16:46:02.711Z,20.60
2018-07-10T16:48:43.258Z,20.40
2018-07-10T16:51:22.443Z,20.50
2018-07-10T16:53:57.724Z,20.60
2018-07-10T16:56:28.471Z,20.40
2018-07-10T16:58:59.877Z,20.60
2018-07-10T17:01:31.098Z,21.10
2018-07-10T17:04:04.264Z,21.60
2018-07-10T17:06:34.993Z,22.00
2018-07-10T17:09:06.248Z,22.20
2018-07-10T17:11:37.057Z,22.20
2018-07-10T17:14:07.706Z,21.40
2018-07-10T17:16:38.455Z,21.30
2018-07-10T17:19:09.086Z,21.30
2018-07-10T17:21:39.705Z,21.30
2018-07-10T17:24:10.617Z,21.10
2018-07-10T17:26:41.658Z,21.00
2018-07-10T17:29:13.192Z,20.80
2018-07-10T17:31:43.752Z,21.00
2018-07-10T17:34:14.418Z,21.40
2018-07-10T17:36:45.213Z,21.50
2018-07-10T17:41:47.339Z,21.40
2018-07-10T17:44:17.967Z,21.60
2018-07-10T17:46:48.632Z,21.50
2018-07-10T17:49:19.264Z,21.50
2018-07-10T17:51:51.070Z,21.50
2018-07-10T17:54:22.044Z,21.40
2018-07-10T17:56:52.748Z,21.30
2018-07-10T17:59:23.564Z,21.10
2018-07-10T18:01:54.235Z,20.80
2018-07-10T18:04:24.966Z,20.70
2018-07-10T18:06:55.620Z,20.70
2018-07-10T18:09:26.174Z,20.50
2018-07-10T18:11:56.974Z,20.40
2018-07-10T18:14:27.589Z,20.30
2018-07-10T18:16:58.219Z,20.20
2018-07-10T18:19:29.661Z,20.10
2018-07-10T18:22:00.466Z,20.20
2018-07-10T18:24:31.360Z,20.20
2018-07-10T18:27:02.213Z,20.30
2018-07-10T18:29:33.014Z,20.30
2018-07-10T18:32:03.857Z,20.20
2018-07-10T18:34:34.682Z,20.20
2018-07-10T18:37:05.523Z,20.20
2018-07-10T18:39:36.159Z,20.20
2018-07-10T18:42:07.182Z,20.20
2018-07-10T18:47:08.365Z,20.10
2018-07-10T18:49:39.098Z,20.00
2018-07-10T18:52:09.866Z,20.00
2018-07-10T18:54:41.044Z,20.00
2018-07-10T18:58:24.600Z,19.80
2018-07-10T19:01:14.784Z,19.60
2018-07-10T19:03:48.539Z,19.50
2018-07-10T19:06:23.403Z,19.30
2018-07-10T19:08:54.180Z,19.10
2018-07-10T19:11:26.949Z,18.90
2018-07-10T19:14:01.767Z,18.90
2018-07-10T19:16:33.015Z,18.90
2018-07-10T19:19:05.999Z,18.80
2018-07-10T19:21:40.142Z,18.80
2018-07-10T19:24:18.209Z,18.50
2018-07-10T19:26:50.178Z,18.40
2018-07-10T19:29:39.732Z,18.40
2018-07-10T19:32:10.981Z,18.30
2018-07-10T19:37:11.863Z,18.10
2018-07-10T19:39:42.527Z,18.00
2018-07-10T19:42:13.168Z,18.00
2018-07-10T19:44:45.621Z,17.90
2018-07-10T19:47:16.329Z,17.90
2018-07-10T19:49:50.596Z,17.80
2018-07-10T19:52:23.541Z,17.70
2018-07-10T19:54:56.219Z,17.60
2018-07-10T19:57:54.689Z,17.50
2018-07-10T20:00:30.939Z,17.50
2018-07-10T20:05:36.570Z,17.40
2018-07-10T20:08:14.083Z,17.50
2018-07-10T20:10:56.792Z,17.50
2018-07-10T20:13:44.377Z,17.40
2018-07-10T20:16:30.191Z,17.30
2018-07-10T20:19:12.928Z,17.30
2018-07-10T20:21:56.981Z,17.40
2018-07-10T20:24:27.914Z,17.40
2018-07-10T20:27:08.173Z,17.30
2018-07-10T20:29:56.899Z,17.30
2018-07-10T20:36:26.248Z,17.00
2018-07-10T20:38:58.493Z,16.80
2018-07-10T20:41:41.219Z,16.70
2018-07-10T20:44:12.078Z,16.70
2018-07-10T20:46:48.052Z,16.80
2018-07-10T20:49:23.125Z,16.80
2018-07-10T20:52:02.780Z,16.80
2018-07-10T20:55:13.453Z,16.80
2018-07-10T20:58:05.688Z,16.90
2018-07-10T21:00:48.109Z,16.90
2018-07-10T21:06:23.280Z,16.80
2018-07-10T21:09:13.388Z,16.70
2018-07-10T21:12:29.263Z,16.70
2018-07-10T21:15:06.511Z,16.60
2018-07-10T21:18:52.340Z,16.60
2018-07-10T21:22:37.859Z,16.50
2018-07-10T21:25:19.770Z,16.40
2018-07-10T21:28:56.151Z,16.40
2018-07-10T21:32:09.412Z,16.30
2018-07-10T21:34:49.450Z,16.20
2018-07-10T21:40:00.682Z,16.20
2018-07-10T21:42:55.193Z,16.10
2018-07-10T21:45:48.838Z,16.10
2018-07-10T21:50:37.604Z,16.20
2018-07-10T21:53:08.358Z,15.80
2018-07-10T21:55:39.131Z,15.60
2018-07-10T21:58:10.011Z,15.60
2018-07-10T22:01:57.518Z,15.60
2018-07-10T22:04:30.669Z,15.70
2018-07-10T22:07:05.771Z,15.60
2018-07-10T22:09:38.972Z,15.50
2018-07-10T22:12:15.297Z,15.60
2018-07-10T22:14:46.623Z,15.60
2018-07-10T22:17:27.780Z,15.50
2018-07-10T22:19:59.059Z,15.40
2018-07-10T22:22:33.086Z,15.40
2018-07-10T22:25:05.502Z,15.40
2018-07-10T22:27:40.300Z,15.30
2018-07-10T22:30:19.926Z,15.40
2018-07-10T22:33:01.248Z,15.30
2018-07-10T22:35:31.846Z,15.20
2018-07-10T22:38:02.652Z,15.30
2018-07-10T22:40:33.223Z,15.40
2018-07-10T22:43:03.954Z,15.50
2018-07-10T22:45:34.610Z,15.40
2018-07-10T22:48:05.938Z,15.40
2018-07-10T22:50:36.646Z,15.30
2018-07-10T22:53:07.326Z,15.20
2018-07-10T22:55:37.992Z,15.30
2018-07-10T22:58:08.849Z,15.20
2018-07-10T23:00:40.322Z,15.30
2018-07-10T23:03:18.509Z,15.30
2018-07-10T23:05:50.188Z,15.30
2018-07-10T23:08:34.769Z,15.50
2018-07-10T23:11:06.479Z,15.60
2018-07-10T23:13:40.719Z,15.60
2018-07-10T23:16:11.109Z,15.60
2018-07-10T23:18:42.890Z,15.50
2018-07-10T23:21:17.276Z,15.30
2018-07-10T23:23:48.126Z,15.20
2018-07-10T23:26:20.013Z,15.00
2018-07-10T23:28:54.584Z,15.00
2018-07-10T23:31:28.626Z,15.00
2018-07-10T23:34:09.089Z,15.00
2018-07-10T23:36:39.900Z,14.90
2018-07-10T23:39:11.377Z,14.60
2018-07-10T23:42:05.514Z,14.70
2018-07-10T23:44:39.587Z,14.70
2018-07-10T23:47:42.208Z,14.60
2018-07-10T23:50:28.724Z,14.50
2018-07-10T23:53:49.076Z,14.60
2018-07-10T23:56:20.409Z,14.40
2018-07-10T23:58:51.773Z,14.10
